Bretagne — FNBR — position and weather

sailwx.info

Track history (hours):
 
Tides and Currents Weather Stations Pressure Air Temp Water Temp Dewpoint Dewpoint Depression Visibility Wind Speed Wind Dir Waves Ship Positions

Bretagne

Operator: Brittany Ferries

Last reported at 2015-Jul-30 19:32 UTC. Time now 2015-Jul-30 20:15 UTC.
Position N 50°49' W 001°06'.

Length 151 m; beam 27 m.

Type: Ship. MMSI: 227286000.

Date/timePositionNaut miles runAvg speedWind from/ knotsBaromVisibWave heightAir tempDewpointWater temp
2015-Jul-30 19:32N 50°49' W 001°06'0 0.0
2015-Jul-30 18:32N 50°49' W 001°06'0 0.0
2015-Jul-30 17:32N 50°49' W 001°06'8 8.0
2015-Jul-30 16:33N 50°42' W 000°59'26 1.4
2015-Jul-29 21:33N 50°22' W 001°24'1515.2
2015-Jul-29 20:33N 50°34' W 001°10'1212.2
2015-Jul-29 19:34N 50°46' W 001°05'2 2.3
2015-Jul-29 18:32N 50°49' W 001°06'0 0.0
2015-Jul-29 17:32N 50°49' W 001°06'6 6.2
2015-Jul-29 16:34N 50°43' W 001°01'24 1.3
2015-Jul-28 21:33N 50°23' W 001°20'1515.3
2015-Jul-28 20:34N 50°36' W 001°09'1212.1
2015-Jul-28 19:33N 50°48' W 001°07'1 1.1
2015-Jul-28 18:33N 50°49' W 001°06'0 0.0
2015-Jul-28 17:33N 50°49' W 001°06'2 2.3
2015-Jul-28 16:34N 50°46' W 001°06'1816.4
2015-Jul-28 15:29N 50°30' W 001°15'14 0.8
2015-Jul-27 21:32N 50°31' W 001°36'1515.2
2015-Jul-27 20:33N 50°34' W 001°13'1313.3
2015-Jul-27 19:34N 50°46' W 001°05'3 2.6
2015-Jul-27 18:33N 50°49' W 001°06'0 0.0
2015-Jul-27 17:33N 50°49' W 001°06'3 2.9
2015-Jul-27 16:33N 50°46' W 001°05'13 0.6
2015-Jul-26 20:32N 50°34' W 001°13'1212.2
2015-Jul-26 19:34N 50°45' W 001°05'4 4.0
2015-Jul-26 18:31N 50°49' W 001°06'0 0.0
2015-Jul-26 17:31N 50°49' W 001°06'2 2.4
2015-Jul-26 16:34N 50°46' W 001°06'1615.8
2015-Jul-26 15:33N 50°31' W 001°13'13 0.7
2015-Jul-25 21:28N 50°21' W 001°25'1516.0
2015-Jul-25 20:33N 50°33' W 001°12'1313.4
2015-Jul-25 19:33N 50°45' W 001°05'3 3.3
2015-Jul-25 18:31N 50°49' W 001°06'0 0.0
2015-Jul-25 17:31N 50°49' W 001°06'2 2.4
2015-Jul-25 16:34N 50°46' W 001°05'1615.4
2015-Jul-25 15:31N 50°31' W 001°13'3 0.1
2015-Jul-24 20:33N 50°33' W 001°11'1413.7
2015-Jul-24 19:34N 50°47' W 001°06'2 2.1
2015-Jul-24 18:32N 50°49' W 001°06'0 0.0
2015-Jul-24 17:33N 50°49' W 001°06'3 2.8
2015-Jul-24 16:33N 50°46' W 001°05'51 2.9
2015-Jul-23 23:10N 50°01' W 001°43'1315.0
2015-Jul-23 22:18N 50°12' W 001°33'1115.6
2015-Jul-23 21:33N 50°22' W 001°23'1616.0
2015-Jul-23 20:34N 50°35' W 001°09'1312.6
2015-Jul-23 19:33N 50°48' W 001°07'1 1.1
2015-Jul-23 18:33N 50°49' W 001°06'0 0.0
2015-Jul-23 17:33N 50°49' W 001°06'3 2.9
2015-Jul-23 16:33N 50°46' W 001°05'1412.8
2015-Jul-23 15:30N 50°33' W 001°11'11511.5
2015-Jul-23 05:32N 48°44' W 002°08'10312.9
2015-Jul-22 21:33N 50°22' W 001°20'1615.5
2015-Jul-22 20:33N 50°35' W 001°08'1212.1
2015-Jul-22 19:33N 50°47' W 001°07'1 1.3
2015-Jul-22 18:33N 50°49' W 001°06'0 0.0
2015-Jul-22 17:33N 50°49' W 001°06'2 2.5
2015-Jul-22 16:33N 50°46' W 001°05'1514.7
2015-Jul-22 15:33N 50°32' W 001°12'48 3.2
2015-Jul-22 00:22N 49°52' W 001°55'1113.8
2015-Jul-21 23:33N 50°02' W 001°45'1313.4
2015-Jul-21 22:33N 50°13' W 001°33'1514.0
2015-Jul-21 21:31N 50°25' W 001°21'1414.1
2015-Jul-21 20:33N 50°36' W 001°09'1111.4
2015-Jul-21 19:33N 50°47' W 001°07'1 1.4
2015-Jul-21 18:31N 50°49' W 001°06'0 0.0
2015-Jul-21 17:31N 50°49' W 001°06'4 4.0
2015-Jul-21 16:34N 50°45' W 001°05'1413.9
2015-Jul-21 15:33N 50°32' W 001°13'9116.8
2015-Jul-21 10:09N 49°04' W 001°50'1119.6
2015-Jul-21 09:33N 48°54' W 001°59'12 2.8
2015-Jul-21 05:30N 48°44' W 002°08'1617.1
2015-Jul-21 04:33N 48°58' W 002°22'7514.7
2015-Jul-20 23:26N 50°07' W 001°38'1412.6
2015-Jul-20 22:19N 50°18' W 001°24'1012.7
2015-Jul-20 21:33N 50°26' W 001°15'1312.7
2015-Jul-20 20:33N 50°37' W 001°05'1010.1
2015-Jul-20 19:34N 50°47' W 001°06'  
Track history (hours):
 
Tides and Currents Weather Stations Pressure Air Temp Water Temp Dewpoint Dewpoint Depression Visibility Wind Speed Wind Dir Waves Ship Positions

Bretagne

Operator: Brittany Ferries

Last reported at 2015-Jul-30 19:32 UTC. Time now 2015-Jul-30 20:15 UTC.
Position N 50°49' W 001°06'.

Length 151 m; beam 27 m.

Type: Ship. MMSI: 227286000.

Date/timePositionNaut miles runAvg speedWind from/ knotsBaromVisibWave heightAir tempDewpointWater temp
2015-Jul-30 19:32N 50°49' W 001°06'0 0.0
2015-Jul-30 18:32N 50°49' W 001°06'0 0.0
2015-Jul-30 17:32N 50°49' W 001°06'8 8.0
2015-Jul-30 16:33N 50°42' W 000°59'26 1.4
2015-Jul-29 21:33N 50°22' W 001°24'1515.2
2015-Jul-29 20:33N 50°34' W 001°10'1212.2
2015-Jul-29 19:34N 50°46' W 001°05'2 2.3
2015-Jul-29 18:32N 50°49' W 001°06'0 0.0
2015-Jul-29 17:32N 50°49' W 001°06'6 6.2
2015-Jul-29 16:34N 50°43' W 001°01'24 1.3
2015-Jul-28 21:33N 50°23' W 001°20'1515.3
2015-Jul-28 20:34N 50°36' W 001°09'1212.1
2015-Jul-28 19:33N 50°48' W 001°07'1 1.1
2015-Jul-28 18:33N 50°49' W 001°06'0 0.0
2015-Jul-28 17:33N 50°49' W 001°06'2 2.3
2015-Jul-28 16:34N 50°46' W 001°06'1816.4
2015-Jul-28 15:29N 50°30' W 001°15'14 0.8
2015-Jul-27 21:32N 50°31' W 001°36'1515.2
2015-Jul-27 20:33N 50°34' W 001°13'1313.3
2015-Jul-27 19:34N 50°46' W 001°05'3 2.6
2015-Jul-27 18:33N 50°49' W 001°06'0 0.0
2015-Jul-27 17:33N 50°49' W 001°06'3 2.9
2015-Jul-27 16:33N 50°46' W 001°05'13 0.6
2015-Jul-26 20:32N 50°34' W 001°13'1212.2
2015-Jul-26 19:34N 50°45' W 001°05'4 4.0
2015-Jul-26 18:31N 50°49' W 001°06'0 0.0
2015-Jul-26 17:31N 50°49' W 001°06'2 2.4
2015-Jul-26 16:34N 50°46' W 001°06'1615.8
2015-Jul-26 15:33N 50°31' W 001°13'13 0.7
2015-Jul-25 21:28N 50°21' W 001°25'1516.0
2015-Jul-25 20:33N 50°33' W 001°12'1313.4
2015-Jul-25 19:33N 50°45' W 001°05'3 3.3
2015-Jul-25 18:31N 50°49' W 001°06'0 0.0
2015-Jul-25 17:31N 50°49' W 001°06'2 2.4
2015-Jul-25 16:34N 50°46' W 001°05'1615.4
2015-Jul-25 15:31N 50°31' W 001°13'3 0.1
2015-Jul-24 20:33N 50°33' W 001°11'1413.7
2015-Jul-24 19:34N 50°47' W 001°06'2 2.1
2015-Jul-24 18:32N 50°49' W 001°06'0 0.0
2015-Jul-24 17:33N 50°49' W 001°06'3 2.8
2015-Jul-24 16:33N 50°46' W 001°05'51 2.9
2015-Jul-23 23:10N 50°01' W 001°43'1315.0
2015-Jul-23 22:18N 50°12' W 001°33'1115.6
2015-Jul-23 21:33N 50°22' W 001°23'1616.0
2015-Jul-23 20:34N 50°35' W 001°09'1312.6
2015-Jul-23 19:33N 50°48' W 001°07'1 1.1
2015-Jul-23 18:33N 50°49' W 001°06'0 0.0
2015-Jul-23 17:33N 50°49' W 001°06'3 2.9
2015-Jul-23 16:33N 50°46' W 001°05'1412.8
2015-Jul-23 15:30N 50°33' W 001°11'11511.5
2015-Jul-23 05:32N 48°44' W 002°08'10312.9
2015-Jul-22 21:33N 50°22' W 001°20'1615.5
2015-Jul-22 20:33N 50°35' W 001°08'1212.1
2015-Jul-22 19:33N 50°47' W 001°07'1 1.3
2015-Jul-22 18:33N 50°49' W 001°06'0 0.0
2015-Jul-22 17:33N 50°49' W 001°06'2 2.5
2015-Jul-22 16:33N 50°46' W 001°05'1514.7
2015-Jul-22 15:33N 50°32' W 001°12'48 3.2
2015-Jul-22 00:22N 49°52' W 001°55'1113.8
2015-Jul-21 23:33N 50°02' W 001°45'1313.4
2015-Jul-21 22:33N 50°13' W 001°33'1514.0
2015-Jul-21 21:31N 50°25' W 001°21'1414.1
2015-Jul-21 20:33N 50°36' W 001°09'1111.4
2015-Jul-21 19:33N 50°47' W 001°07'1 1.4
2015-Jul-21 18:31N 50°49' W 001°06'0 0.0
2015-Jul-21 17:31N 50°49' W 001°06'4 4.0
2015-Jul-21 16:34N 50°45' W 001°05'1413.9
2015-Jul-21 15:33N 50°32' W 001°13'9116.8
2015-Jul-21 10:09N 49°04' W 001°50'1119.6
2015-Jul-21 09:33N 48°54' W 001°59'12 2.8
2015-Jul-21 05:30N 48°44' W 002°08'1617.1
2015-Jul-21 04:33N 48°58' W 002°22'7514.7
2015-Jul-20 23:26N 50°07' W 001°38'1412.6
2015-Jul-20 22:19N 50°18' W 001°24'1012.7
2015-Jul-20 21:33N 50°26' W 001°15'1312.7
2015-Jul-20 20:33N 50°37' W 001°05'1010.1
2015-Jul-20 19:34N 50°47' W 001°06'  

Dump ship's entire track history